Deckerville, Washington
Current Conditions -  °F | °C
As of 2:53 AM on Sunday 23 Nov 2014 (Local Time) from KSHN Reporting Station
Light Rain Light Rain  
Wind Chill: 47°   Ceiling: 1200
Heat Index: 47°   Visibility: 9mi
Dew Point: 44°   Wind: 0mph
Humidity: 90%   Direction: NA
Pressure: 30.13"   Gusts: NA
Location:  46.9859°N, 123.385°W
Report Text: KSHN 231053Z AUTO 00000KT 9SM -RA BKN012 OVC044 08/07 A3013 RMK AO2 RAB09E29B49 SLP205 P0001 T00830067
Loading
Personal Weather Stations






























Interactive Weather Map New forecast layout! Learn more

10-Day Weather Forecast

Advertisements
Track Severe Weather on mobile